Time;durP1;ratioP1;P1;durP2;ratioP2;P2;SDS_P1;SDS_P2;PMS_P1;PMS_P2;Temp;Humidity;BMP_temperature;BMP_pressure;BME280_temperature;BME280_humidity;BME280_pressure;Samples;Min_cycle;Max_cycle;Signal;HPM_P1;HPM_P2
2023/08/14 00:00:07;;;;;;;11.10;5.85;;;;;;;21.41;70.98;100697.64;1666564;85;21359;-78
2023/08/14 00:03:13;;;;;;;6.55;5.50;;;;;;;21.53;70.50;100698.48;1682098;85;21340;-78
2023/08/14 00:06:18;;;;;;;7.42;5.78;;;;;;;21.55;70.17;100692.16;1682461;85;21332;-78
2023/08/14 00:09:24;;;;;;;9.60;6.05;;;;;;;21.48;70.30;100698.91;1682199;85;21934;-78
2023/08/14 00:12:30;;;;;;;6.55;5.10;;;;;;;21.59;70.28;100700.30;1683716;85;21962;-78
2023/08/14 00:15:36;;;;;;;9.45;5.97;;;;;;;21.69;70.09;100698.35;1708358;83;21805;-78
2023/08/14 00:18:42;;;;;;;8.73;5.85;;;;;;;21.88;69.32;100694.37;1717347;83;22513;-78
2023/08/14 00:21:49;;;;;;;9.70;5.90;;;;;;;22.19;68.26;100698.73;1717126;83;21318;-78
2023/08/14 00:24:54;;;;;;;9.45;5.92;;;;;;;22.19;68.00;100694.55;1717358;83;21306;-78
2023/08/14 00:28:01;;;;;;;8.48;6.03;;;;;;;22.12;67.87;100695.24;1717453;83;21917;-78
2023/08/14 00:31:09;;;;;;;11.08;6.55;;;;;;;22.26;67.54;100693.60;1654597;83;21360;-78
2023/08/14 00:34:15;;;;;;;7.78;6.47;;;;;;;22.39;67.13;100691.92;1655603;86;21333;-78
2023/08/14 00:37:21;;;;;;;9.00;6.22;;;;;;;22.37;67.00;100694.12;1655362;85;21309;-78
2023/08/14 00:40:26;;;;;;;9.08;6.47;;;;;;;22.61;66.25;100694.36;1654678;86;21359;-78
2023/08/14 00:43:32;;;;;;;9.40;6.12;;;;;;;22.40;66.69;100694.48;1654140;86;21648;-78
2023/08/14 00:46:37;;;;;;;8.20;5.90;;;;;;;22.33;67.01;100693.75;1667094;86;21341;-78
2023/08/14 00:49:44;;;;;;;10.05;6.08;;;;;;;22.54;66.22;100694.22;1666900;86;21408;-78
2023/08/14 00:52:55;;;;;;;9.90;6.17;;;;;;;22.64;65.44;100693.88;1667004;86;21337;-78
2023/08/14 00:56:01;;;;;;;;;;;;;;;22.13;66.88;100696.93;1669863;86;21333;-78
2023/08/14 00:59:08;;;;;;;10.13;5.60;;;;;;;21.86;67.94;100695.14;1655528;85;20315;-78
2023/08/14 01:02:15;;;;;;;13.50;6.17;;;;;;;21.78;68.36;100701.05;1656857;86;21672;-78
2023/08/14 01:05:22;;;;;;;10.05;6.50;;;;;;;21.93;67.80;100692.25;1659884;86;21305;-78
2023/08/14 01:08:28;;;;;;;8.33;5.90;;;;;;;21.97;67.68;100694.83;1657021;86;21322;-78
2023/08/14 01:11:48;;;;;;;13.68;7.40;;;;;;;21.94;67.78;100693.94;1658232;86;21392;-78
2023/08/14 01:14:55;;;;;;;6.85;6.10;;;;;;;21.90;67.91;100699.69;1680584;84;21750;-78
2023/08/14 01:18:05;;;;;;;6.87;5.83;;;;;;;21.86;67.86;100697.92;1708845;84;21889;-78
2023/08/14 01:21:27;;;;;;;9.80;6.30;;;;;;;21.98;67.35;100700.73;1707857;84;21877;-78
2023/08/14 01:25:09;;;;;;;11.25;6.40;;;;;;;21.97;67.25;100697.61;1702381;84;21654;-78
2023/08/14 01:28:15;;;;;;;8.18;6.85;;;;;;;22.01;67.09;100703.55;1697465;84;21359;-78
2023/08/14 01:31:21;;;;;;;10.43;6.30;;;;;;;22.07;66.68;100712.36;1708279;84;21319;-78
2023/08/14 01:34:27;;;;;;;8.28;6.10;;;;;;;22.15;66.39;100712.84;1708008;84;21339;-78
2023/08/14 01:37:43;;;;;;;8.60;6.35;;;;;;;22.09;66.38;100711.55;1707708;82;21341;-78
2023/08/14 01:41:13;;;;;;;9.38;6.58;;;;;;;21.99;66.59;100709.38;1708544;84;21847;-78
2023/08/14 01:44:22;;;;;;;11.43;6.87;;;;;;;22.13;65.87;100708.63;1697740;84;21322;-78
2023/08/14 01:47:22;;;;;;;10.43;6.25;;;;;;;22.28;65.50;100720.66;1658345;85;21181;-78
2023/08/14 01:50:28;;;;;;;11.53;5.47;;;;;;;21.95;66.08;100710.95;1720444;83;21720;-78
2023/08/14 01:53:34;;;;;;;8.50;6.87;;;;;;;21.88;66.72;100716.64;1720394;83;21296;-78
2023/08/14 01:56:40;;;;;;;7.40;6.17;;;;;;;21.82;66.91;100715.35;1720538;83;21292;-78
2023/08/14 01:59:53;;;;;;;9.15;6.47;;;;;;;21.73;67.11;100718.19;1707068;83;21906;-78
2023/08/14 02:03:01;;;;;;;16.75;6.37;;;;;;;21.60;67.51;100718.73;1690325;84;21335;-78
2023/08/14 02:06:07;;;;;;;8.58;5.97;;;;;;;21.73;66.87;100723.75;1691524;84;22741;-78
2023/08/14 02:09:13;;;;;;;7.90;5.85;;;;;;;21.75;66.32;100722.98;1691897;85;21336;-78
2023/08/14 02:12:19;;;;;;;9.10;6.20;;;;;;;21.74;66.26;100730.49;1690439;85;21380;-78
2023/08/14 02:15:25;;;;;;;10.53;5.40;;;;;;;21.65;66.70;100724.42;1689224;84;21365;-78
2023/08/14 02:18:31;;;;;;;7.50;5.53;;;;;;;21.57;66.64;100734.50;1688421;85;21340;-78
2023/08/14 02:21:37;;;;;;;6.90;5.45;;;;;;;21.79;65.71;100731.16;1687808;85;21344;-78
2023/08/14 02:24:43;;;;;;;15.30;6.28;;;;;;;21.88;65.13;100733.91;1688282;85;21336;-78
2023/08/14 02:27:49;;;;;;;8.08;5.70;;;;;;;21.86;64.95;100736.91;1688356;85;21363;-78
2023/08/14 02:30:55;;;;;;;6.70;5.33;;;;;;;22.06;64.01;100742.66;1688457;85;21376;-78
2023/08/14 02:34:09;;;;;;;11.03;5.05;;;;;;;21.93;64.10;100742.37;1681127;85;21453;-78
2023/08/14 02:37:14;;;;;;;8.98;5.30;;;;;;;21.88;63.81;100743.65;1678224;84;21386;-78
2023/08/14 02:40:20;;;;;;;10.70;5.55;;;;;;;21.96;63.32;100744.66;1679765;85;21335;-78
2023/08/14 02:43:28;;;;;;;10.00;5.25;;;;;;;22.08;62.78;100745.53;1679813;85;21359;-78
2023/08/14 02:46:34;;;;;;;12.18;5.80;;;;;;;22.01;62.67;100747.56;1678985;85;22021;-78
2023/08/14 02:49:40;;;;;;;15.25;4.92;;;;;;;22.06;62.51;100753.27;1678359;85;21383;-78
2023/08/14 02:52:46;;;;;;;11.18;5.97;;;;;;;22.30;61.70;100751.91;1678595;85;21362;-77
2023/08/14 02:55:58;;;;;;;9.98;5.35;;;;;;;22.60;60.66;100757.34;1679512;85;21334;-78
2023/08/14 02:59:03;;;;;;;7.25;5.40;;;;;;;22.78;59.99;100748.82;1673850;85;21339;-77
2023/08/14 03:02:09;;;;;;;7.00;5.80;;;;;;;23.07;59.37;100755.86;1661066;86;21362;-77
2023/08/14 03:05:15;;;;;;;12.93;5.53;;;;;;;23.13;59.37;100754.30;1660992;86;21358;-78
2023/08/14 03:08:21;;;;;;;13.50;5.37;;;;;;;23.40;58.87;100756.50;1662330;86;21888;-77
2023/08/14 03:11:27;;;;;;;9.48;5.00;;;;;;;23.79;57.89;100752.48;1662632;86;21880;-78
2023/08/14 03:14:33;;;;;;;7.87;5.20;;;;;;;24.03;56.75;100760.14;1670805;85;21350;-77
2023/08/14 03:17:39;;;;;;;9.40;4.97;;;;;;;23.91;56.78;100761.09;1690573;85;21453;-77
2023/08/14 03:20:45;;;;;;;9.68;5.15;;;;;;;24.10;56.09;100764.47;1691560;85;21338;-77
2023/08/14 03:23:50;;;;;;;9.85;4.53;;;;;;;24.11;55.96;100763.36;1690068;85;21322;-78
2023/08/14 03:26:57;;;;;;;6.00;4.75;;;;;;;24.29;55.50;100773.42;1691689;85;21631;-78
2023/08/14 03:30:04;;;;;;;5.85;4.30;;;;;;;24.39;55.31;100772.77;1699910;84;21305;-78
2023/08/14 03:33:10;;;;;;;12.90;5.10;;;;;;;24.59;54.95;100770.26;1707390;84;21345;-78
2023/08/14 03:36:16;;;;;;;7.30;4.50;;;;;;;24.66;54.76;100776.52;1672556;85;21338;-78
2023/08/14 03:39:22;;;;;;;9.63;5.62;;;;;;;24.82;54.62;100780.36;1675017;85;21354;-78
2023/08/14 03:42:29;;;;;;;7.60;4.67;;;;;;;25.10;54.14;100785.51;1674784;85;21981;-78
2023/08/14 03:45:29;;;;;;;7.95;4.78;;;;;;;25.19;54.24;100777.79;1673606;85;21889;-78
2023/08/14 03:48:35;;;;;;;10.70;4.30;;;;;;;25.47;53.44;100779.50;1673649;85;21256;-78
2023/08/14 03:51:28;;;;;;;5.33;4.05;;;;;;;25.69;52.26;100787.86;1675176;85;21323;-77
2023/08/14 03:54:34;;;;;;;9.38;4.53;;;;;;;25.96;51.72;100785.03;1674999;85;21359;-78
2023/08/14 03:57:40;;;;;;;7.10;3.60;;;;;;;26.08;50.62;100786.83;1674858;85;21625;-78
2023/08/14 04:00:49;;;;;;;7.80;3.95;;;;;;;26.27;50.09;100788.66;1687915;85;21306;-78
2023/08/14 04:03:56;;;;;;;7.50;3.05;;;;;;;26.14;49.71;100795.56;1690487;85;21358;-77
2023/08/14 04:07:01;;;;;;;9.43;3.12;;;;;;;26.11;49.51;100791.36;1691744;85;21330;-77
2023/08/14 04:13:21;;;;;;;7.53;3.98;;;;;;;26.44;49.16;100796.37;1690939;85;21948;-78
2023/08/14 04:16:41;;;;;;;6.12;3.40;;;;;;;26.50;48.80;100798.11;1691581;85;21314;-78
2023/08/14 04:19:35;;;;;;;5.72;3.90;;;;;;;26.64;48.45;100802.69;1691862;85;21674;-78
2023/08/14 04:22:41;;;;;;;8.38;4.15;;;;;;;26.81;47.41;100804.73;1691246;85;21326;-78
2023/08/14 04:25:47;;;;;;;11.33;4.00;;;;;;;26.76;48.06;100803.30;1691800;85;21904;-78
2023/08/14 04:28:54;;;;;;;15.83;4.20;;;;;;;26.75;48.29;100798.81;1691632;85;21329;-78
2023/08/14 04:32:01;;;;;;;10.82;3.75;;;;;;;26.60;49.17;100800.98;1691331;85;21334;-78
2023/08/14 04:35:08;;;;;;;8.08;4.28;;;;;;;26.93;49.08;100801.72;1700663;82;21387;-78
2023/08/14 04:38:15;;;;;;;9.50;3.98;;;;;;;26.97;48.75;100804.27;1673116;84;21279;-77
2023/08/14 04:41:21;;;;;;;6.20;3.42;;;;;;;27.07;49.28;100804.31;1684450;85;21893;-77
2023/08/14 04:44:28;;;;;;;8.80;4.10;;;;;;;27.50;48.53;100806.45;1686433;85;21318;-78
2023/08/14 04:47:34;;;;;;;5.17;4.00;;;;;;;27.59;47.66;100803.39;1691597;85;21330;-78
2023/08/14 04:50:41;;;;;;;5.53;3.70;;;;;;;27.95;47.03;100800.11;1691725;85;21326;-78
2023/08/14 04:53:47;;;;;;;7.78;3.83;;;;;;;28.02;46.60;100807.69;1690397;85;21737;-78
2023/08/14 04:56:54;;;;;;;7.37;4.22;;;;;;;27.88;46.98;100808.52;1691704;85;21964;-78
2023/08/14 05:00:01;;;;;;;34.78;4.28;;;;;;;27.84;46.86;100812.45;1691487;85;21302;-78
2023/08/14 05:03:08;;;;;;;8.93;4.30;;;;;;;28.02;47.12;100812.47;1691152;85;21369;-78
2023/08/14 05:06:15;;;;;;;7.00;3.62;;;;;;;28.03;47.17;100814.99;1691636;85;21908;-78
2023/08/14 05:09:22;;;;;;;7.35;3.67;;;;;;;28.05;46.98;100813.33;1691278;85;21322;-78
2023/08/14 05:12:28;;;;;;;6.58;4.22;;;;;;;28.28;46.51;100810.52;1691482;85;21888;-78
2023/08/14 05:15:34;;;;;;;5.72;4.03;;;;;;;28.49;46.02;100814.17;1686781;84;22601;-78
2023/08/14 05:18:42;;;;;;;5.97;4.00;;;;;;;28.66;46.25;100821.75;1668910;85;21346;-78
2023/08/14 05:21:48;;;;;;;8.95;3.27;;;;;;;28.78;45.85;100815.80;1666649;85;21338;-78
2023/08/14 05:24:54;;;;;;;6.10;2.98;;;;;;;28.98;45.44;100812.09;1687428;83;21337;-78
2023/08/14 05:28:00;;;;;;;3.92;2.87;;;;;;;28.83;44.44;100818.59;1684494;83;21345;-78
2023/08/14 05:31:07;;;;;;;4.25;2.80;;;;;;;28.85;42.97;100816.35;1685897;83;21357;-78
2023/08/14 05:34:13;;;;;;;6.40;2.42;;;;;;;28.92;43.23;100822.51;1687719;83;21203;-78
2023/08/14 05:37:19;;;;;;;6.62;2.80;;;;;;;29.24;42.43;100826.37;1671929;83;21326;-78
2023/08/14 05:40:27;;;;;;;7.10;2.40;;;;;;;29.13;41.55;100820.52;1656306;85;21313;-80
2023/08/14 05:43:32;;;;;;;3.90;2.35;;;;;;;29.39;40.48;100825.45;1673131;84;21208;-79
2023/08/14 05:46:38;;;;;;;10.08;2.90;;;;;;;29.47;39.74;100828.23;1671958;85;21342;-79
2023/08/14 05:49:45;;;;;;;20.25;6.20;;;;;;;29.34;39.90;100828.86;1662288;85;21360;-79
2023/08/14 05:52:52;;;;;;;17.95;5.75;;;;;;;29.73;40.36;100829.78;1666325;84;21301;-79
2023/08/14 05:55:58;;;;;;;15.03;3.37;;;;;;;29.58;41.32;100838.91;1657079;86;21317;-79
2023/08/14 05:59:03;;;;;;;7.15;3.52;;;;;;;29.42;41.30;100842.35;1661644;86;21312;-79
2023/08/14 06:02:18;;;;;;;8.43;2.70;;;;;;;29.91;40.52;100838.13;1662995;86;21320;-77
2023/08/14 06:05:28;;;;;;;4.28;2.40;;;;;;;29.64;41.62;100836.33;1663617;86;21351;-79
2023/08/14 06:08:34;;;;;;;6.00;3.00;;;;;;;29.56;40.90;100843.44;1663272;85;21343;-79
2023/08/14 06:11:42;;;;;;;13.20;4.33;;;;;;;29.54;40.82;100842.84;1675312;84;21200;-77
2023/08/14 06:14:50;;;;;;;3.58;2.52;;;;;;;29.73;40.98;100846.70;1667813;85;22400;-78
2023/08/14 06:17:55;;;;;;;11.83;4.22;;;;;;;29.05;41.75;100839.41;1672157;84;21366;-78
2023/08/14 06:21:02;;;;;;;4.95;2.62;;;;;;;29.40;41.21;100841.21;1675944;84;21218;-78
2023/08/14 06:24:12;;;;;;;5.58;2.72;;;;;;;29.70;40.26;100847.30;1680136;84;21300;-79
2023/08/14 06:27:23;;;;;;;5.87;2.52;;;;;;;29.89;38.71;100849.45;1659808;85;21585;-77
2023/08/14 06:30:29;;;;;;;5.67;2.47;;;;;;;29.74;39.42;100848.41;1670635;85;21319;-78
2023/08/14 06:33:35;;;;;;;6.67;2.72;;;;;;;29.67;40.47;100852.10;1672239;85;21514;-79
2023/08/14 06:36:41;;;;;;;5.37;2.60;;;;;;;29.84;39.65;100850.89;1662805;83;22360;-80
2023/08/14 06:39:47;;;;;;;5.37;3.00;;;;;;;30.22;39.01;100852.05;1659782;86;21386;-79
2023/08/14 06:43:06;;;;;;;5.92;2.33;;;;;;;30.06;39.36;100854.09;1657613;85;21326;-78
2023/08/14 06:46:12;;;;;;;6.15;2.87;;;;;;;29.98;39.42;100861.22;1679561;84;21779;-70
2023/08/14 06:49:18;;;;;;;5.47;2.62;;;;;;;30.22;38.08;100859.10;1685818;84;21899;-71
2023/08/14 06:52:23;;;;;;;9.03;3.95;;;;;;;30.50;36.73;100864.51;1680586;84;21347;-70
2023/08/14 06:55:28;;;;;;;4.97;2.40;;;;;;;30.47;36.41;100858.88;1698037;84;21921;-77
2023/08/14 06:58:34;;;;;;;4.17;2.30;;;;;;;30.49;36.06;100861.42;1688232;84;21284;-70
2023/08/14 07:01:40;;;;;;;8.65;2.75;;;;;;;30.92;35.59;100858.76;1680892;84;21838;-77
2023/08/14 07:04:46;;;;;;;5.30;2.35;;;;;;;31.07;34.57;100859.99;1694762;84;21290;-70
2023/08/14 07:07:51;;;;;;;4.97;2.47;;;;;;;30.98;34.58;100851.90;1697399;84;21335;-71
2023/08/14 07:10:58;;;;;;;50.73;13.15;;;;;;;31.14;33.47;100851.14;1696776;84;21323;-70
2023/08/14 07:14:04;;;;;;;14.13;4.12;;;;;;;31.36;33.56;100856.28;1691446;84;21321;-70
2023/08/14 07:17:11;;;;;;;10.30;3.87;;;;;;;31.36;33.95;100855.70;1701168;84;21342;-71
2023/08/14 07:20:19;;;;;;;33.28;8.63;;;;;;;31.44;34.18;100855.62;1704006;84;21286;-77
2023/08/14 07:23:27;;;;;;;73.90;16.85;;;;;;;31.64;34.26;100855.91;1694999;84;21256;-77
2023/08/14 07:26:32;;;;;;;6.15;2.70;;;;;;;31.60;32.84;100854.83;1693894;84;21346;-77
2023/08/14 07:29:38;;;;;;;15.98;4.75;;;;;;;31.85;31.70;100861.55;1686254;84;21893;-77
2023/08/14 07:32:43;;;;;;;13.00;3.05;;;;;;;31.96;32.22;100863.09;1701601;84;21955;-77
2023/08/14 07:35:48;;;;;;;11.05;2.58;;;;;;;32.11;31.29;100866.83;1696840;84;21355;-77
2023/08/14 07:38:55;;;;;;;9.58;2.90;;;;;;;32.21;30.77;100868.91;1694836;84;21904;-71
2023/08/14 07:42:00;;;;;;;17.05;4.78;;;;;;;32.24;31.93;100871.14;1690956;84;21718;-77
2023/08/14 07:45:05;;;;;;;8.58;2.87;;;;;;;32.33;31.72;100865.62;1638909;85;21375;-77
2023/08/14 07:48:11;;;;;;;11.33;2.92;;;;;;;32.33;31.27;100866.20;1641907;85;21341;-78
2023/08/14 07:51:16;;;;;;;14.23;3.50;;;;;;;32.55;31.96;100873.47;1670729;85;21335;-77
2023/08/14 07:54:22;;;;;;;9.88;2.90;;;;;;;32.55;31.96;100873.47;1662874;85;21316;-77
2023/08/14 07:57:27;;;;;;;9.38;3.58;;;;;;;32.12;31.90;100872.17;1674980;85;21339;-77
2023/08/14 08:00:31;;;;;;;11.70;3.50;;;;;;;31.99;31.65;100871.52;1666838;85;22206;-70
2023/08/14 08:03:37;;;;;;;6.22;3.27;;;;;;;31.94;31.99;100873.02;1691812;83;21264;-70
2023/08/14 08:06:42;;;;;;;9.28;2.92;;;;;;;32.11;31.66;100863.42;1691172;83;21354;-77
2023/08/14 08:09:49;;;;;;;7.67;2.65;;;;;;;32.63;31.57;100874.76;1695734;83;21265;-77
2023/08/14 08:12:54;;;;;;;12.13;2.70;;;;;;;32.30;31.03;100868.48;1699335;83;21717;-77
2023/08/14 08:16:00;;;;;;;6.42;2.55;;;;;;;32.52;31.14;100867.03;1694976;83;22219;-77
2023/08/14 08:19:05;;;;;;;4.47;2.30;;;;;;;29.44;35.31;100865.44;1701702;83;21319;-70
2023/08/14 08:22:11;;;;;;;8.58;3.72;;;;;;;28.56;37.16;100861.16;1692607;83;21367;-77
2023/08/14 08:25:17;;;;;;;23.38;6.67;;;;;;;28.42;39.22;100859.48;1694840;83;21272;-77
2023/08/14 08:28:21;;;;;;;13.15;4.45;;;;;;;28.81;38.04;100866.47;1698142;83;21295;-77
2023/08/14 08:31:27;;;;;;;4.00;2.50;;;;;;;29.20;37.18;100868.08;1702819;83;21319;-71
2023/08/14 08:34:32;;;;;;;4.55;2.17;;;;;;;28.78;38.39;100858.86;1696252;83;21279;-71
2023/08/14 08:37:38;;;;;;;7.17;2.30;;;;;;;28.76;37.60;100863.94;1698764;83;21315;-71
2023/08/14 08:40:46;;;;;;;5.67;2.60;;;;;;;29.79;36.86;100865.86;1698550;83;21279;-77
2023/08/14 08:43:52;;;;;;;4.17;2.25;;;;;;;29.75;37.63;100867.00;1695981;84;21961;-77
2023/08/14 08:47:15;;;;;;;4.53;2.40;;;;;;;30.27;34.43;100866.95;1682231;83;21354;-78
2023/08/14 08:50:20;;;;;;;5.58;2.58;;;;;;;30.51;33.92;100870.42;1704808;83;21257;-71
2023/08/14 08:53:28;;;;;;;5.58;2.90;;;;;;;30.99;33.71;100857.81;1693300;83;21291;-71
2023/08/14 08:56:34;;;;;;;15.00;2.60;;;;;;;31.20;34.78;100857.02;1709773;83;21785;-71
2023/08/14 08:59:39;;;;;;;9.90;2.75;;;;;;;31.09;32.99;100860.52;1706650;83;21305;-77
2023/08/14 09:02:45;;;;;;;10.10;2.55;;;;;;;31.20;32.20;100859.27;1708261;83;21370;-70
2023/08/14 09:05:52;;;;;;;5.58;2.40;;;;;;;30.51;32.86;100862.79;1711849;83;21334;-71
2023/08/14 09:08:58;;;;;;;5.25;2.08;;;;;;;30.42;34.30;100857.51;1709358;83;21283;-77
2023/08/14 09:12:04;;;;;;;7.90;2.17;;;;;;;30.38;34.07;100859.23;1704909;83;21275;-71
2023/08/14 09:15:14;;;;;;;3.52;2.02;;;;;;;28.98;35.17;100858.55;1711419;83;21307;-71
2023/08/14 09:18:20;;;;;;;6.55;2.42;;;;;;;28.91;34.89;100862.22;1705987;83;21730;-71
2023/08/14 09:21:25;;;;;;;9.75;2.20;;;;;;;29.45;34.25;100865.70;1710856;83;21271;-72
2023/08/14 09:24:31;;;;;;;6.12;2.70;;;;;;;29.92;33.28;100868.58;1686026;83;21301;-70
2023/08/14 09:27:42;;;;;;;8.38;2.98;;;;;;;30.33;32.93;100863.52;1707934;83;21812;-70
2023/08/14 09:30:48;;;;;;;5.45;2.20;;;;;;;29.89;33.97;100861.56;1691616;83;21310;-70
2023/08/14 09:33:54;;;;;;;5.12;2.52;;;;;;;30.40;32.75;100861.78;1695829;83;21266;-70
2023/08/14 09:37:00;;;;;;;6.70;2.02;;;;;;;30.42;33.54;100865.14;1712957;83;21299;-69
2023/08/14 09:40:18;;;;;;;3.83;2.30;;;;;;;30.23;33.46;100856.55;1707846;83;21884;-69
2023/08/14 09:43:23;;;;;;;3.62;2.08;;;;;;;30.23;33.46;100856.55;1699679;83;21299;-71
2023/08/14 09:46:29;;;;;;;7.62;2.20;;;;;;;30.36;32.71;100856.45;1699110;83;21284;-71
2023/08/14 09:49:34;;;;;;;6.28;2.70;;;;;;;30.33;31.90;100859.85;1690062;84;21888;-71
2023/08/14 09:52:43;;;;;;;4.35;2.33;;;;;;;30.49;32.90;100867.91;1697469;84;21287;-71
2023/08/14 09:55:48;;;;;;;7.37;2.77;;;;;;;30.57;33.41;100862.16;1691348;84;21391;-70
2023/08/14 09:58:56;;;;;;;10.28;3.00;;;;;;;30.66;33.40;100866.60;1692641;84;21338;-77
2023/08/14 10:02:03;;;;;;;7.42;2.85;;;;;;;30.90;32.71;100861.02;1689470;84;21296;-78
2023/08/14 10:05:09;;;;;;;4.87;2.60;;;;;;;31.23;31.94;100862.89;1691867;84;21299;-78
2023/08/14 10:08:15;;;;;;;12.47;2.70;;;;;;;31.23;31.94;100862.89;1695220;84;21312;-72
2023/08/14 10:11:23;;;;;;;5.55;2.67;;;;;;;31.27;31.90;100855.53;1700818;84;21339;-78
2023/08/14 10:14:28;;;;;;;10.90;3.05;;;;;;;31.48;31.96;100858.11;1684097;84;21303;-72
2023/08/14 10:17:51;;;;;;;5.00;2.92;;;;;;;31.17;32.88;100861.28;1692016;84;21294;-73
2023/08/14 10:20:56;;;;;;;6.12;2.80;;;;;;;30.92;33.70;100863.00;1696571;84;21354;-72
2023/08/14 10:24:05;;;;;;;3.70;2.20;;;;;;;31.15;33.11;100861.30;1698039;84;21717;-77
2023/08/14 10:27:10;;;;;;;6.12;2.62;;;;;;;31.02;34.03;100864.29;1702205;84;21333;-77
2023/08/14 10:30:16;;;;;;;6.87;3.10;;;;;;;31.02;33.75;100861.46;1692299;84;21917;-77
2023/08/14 10:33:22;;;;;;;11.15;3.02;;;;;;;30.66;34.26;100853.90;1684343;84;21333;-77
2023/08/14 10:36:27;;;;;;;9.15;2.70;;;;;;;30.86;33.27;100852.88;1706617;84;21359;-72
2023/08/14 10:39:43;;;;;;;8.65;3.67;;;;;;;30.86;33.27;100852.88;1683148;84;21331;-73
2023/08/14 10:42:58;;;;;;;4.62;3.00;;;;;;;31.09;33.02;100856.28;1654532;85;21907;-73
2023/08/14 10:46:05;;;;;;;20.65;4.05;;;;;;;30.99;33.78;100853.00;1642800;86;21342;-72
2023/08/14 10:49:12;;;;;;;7.83;3.27;;;;;;;31.14;33.88;100853.39;1635178;86;21378;-71
2023/08/14 10:52:23;;;;;;;5.42;3.33;;;;;;;31.24;32.79;100848.19;1646546;87;21379;-71
2023/08/14 10:55:49;;;;;;;9.38;4.35;;;;;;;31.08;33.19;100839.06;1652076;86;21319;-72
2023/08/14 10:58:58;;;;;;;11.28;3.75;;;;;;;31.51;32.75;100839.11;1659050;86;21277;-71
2023/08/14 11:02:21;;;;;;;10.82;3.35;;;;;;;31.33;32.49;100835.67;1648179;86;21300;-72
2023/08/14 11:05:26;;;;;;;12.98;4.28;;;;;;;31.23;33.14;100838.88;1660154;86;21276;-75
2023/08/14 11:08:34;;;;;;;7.47;3.35;;;;;;;31.36;34.13;100840.73;1661517;86;21336;-77
2023/08/14 11:11:40;;;;;;;11.43;4.55;;;;;;;31.65;33.58;100832.97;1639919;86;21300;-72
2023/08/14 11:14:49;;;;;;;13.00;4.83;;;;;;;31.70;33.47;100823.00;1664094;86;21316;-77
2023/08/14 11:17:55;;;;;;;8.88;4.35;;;;;;;31.11;33.36;100829.16;1650591;86;21628;-77
2023/08/14 11:21:00;;;;;;;9.85;4.33;;;;;;;31.66;32.96;100826.16;1660998;86;21316;-77
2023/08/14 11:24:08;;;;;;;12.53;6.05;;;;;;;31.76;34.11;100831.70;1655032;86;21827;-72
2023/08/14 11:27:14;;;;;;;14.30;5.72;;;;;;;31.23;33.89;100830.39;1641467;86;21347;-73
2023/08/14 11:30:13;;;;;;;10.55;4.83;;;;;;;30.77;34.24;100821.08;1642464;87;21690;-77
2023/08/14 11:33:11;;;;;;;12.65;5.00;;;;;;;30.58;35.13;100817.27;1635735;86;21359;-77
2023/08/14 11:35:56;;;;;;;8.48;4.78;;;;;;;30.58;35.13;100817.27;1640483;87;22234;-77
2023/08/14 11:38:52;;;;;;;10.70;5.25;;;;;;;30.56;34.26;100822.38;1643586;87;21328;-72
2023/08/14 11:41:39;;;;;;;9.35;4.53;;;;;;;30.54;35.26;100816.20;1665593;86;21324;-77
2023/08/14 11:44:30;;;;;;;7.95;4.08;;;;;;;30.68;35.35;100815.78;1663200;86;21931;-72
2023/08/14 11:47:16;;;;;;;11.70;5.15;;;;;;;30.67;35.31;100791.48;1664694;86;21351;-77
2023/08/14 11:50:15;;;;;;;8.93;4.37;;;;;;;30.70;35.06;100809.82;1674867;84;21946;-72
2023/08/14 11:53:21;;;;;;;14.00;3.80;;;;;;;30.70;35.06;100809.82;1673024;85;21299;-72
2023/08/14 11:56:27;;;;;;;10.88;4.53;;;;;;;30.58;35.06;100809.38;1658814;86;21366;-76
2023/08/14 11:59:32;;;;;;;6.40;3.83;;;;;;;30.59;34.55;100806.27;1676299;85;21216;-77
2023/08/14 12:02:39;;;;;;;6.97;3.60;;;;;;;30.84;34.44;100806.59;1622909;87;21332;-72
2023/08/14 12:05:44;;;;;;;6.85;3.98;;;;;;;30.85;34.16;100811.09;1692223;84;21352;-77
2023/08/14 12:08:50;;;;;;;7.97;3.50;;;;;;;30.85;34.16;100811.09;1637791;86;21300;-77
2023/08/14 12:11:55;;;;;;;8.95;3.00;;;;;;;30.99;34.69;100799.91;1689415;84;21284;-77
2023/08/14 12:15:01;;;;;;;6.42;3.55;;;;;;;30.79;34.66;100802.41;1634291;85;21861;-76
2023/08/14 12:18:00;;;;;;;6.70;3.83;;;;;;;30.93;33.52;100802.54;1672713;85;21303;-72
2023/08/14 12:21:01;;;;;;;7.58;3.20;;;;;;;31.02;33.09;100799.32;1657770;84;21317;-72
2023/08/14 12:23:52;;;;;;;9.55;3.75;;;;;;;31.14;32.91;100783.34;1659498;86;21299;-76
2023/08/14 12:26:57;;;;;;;5.95;3.42;;;;;;;31.27;33.13;100791.95;1646524;86;21352;-76
2023/08/14 12:30:04;;;;;;;7.62;3.15;;;;;;;31.15;32.94;100785.88;1641848;87;21367;-72
2023/08/14 12:33:09;;;;;;;8.73;3.95;;;;;;;31.26;33.05;100796.47;1651240;86;21348;-77
2023/08/14 12:36:16;;;;;;;10.08;4.87;;;;;;;31.27;33.54;100794.77;1676497;85;21327;-72
2023/08/14 12:39:22;;;;;;;9.80;3.05;;;;;;;31.17;34.47;100786.98;1676807;85;21293;-72
2023/08/14 12:42:28;;;;;;;4.92;2.70;;;;;;;31.26;33.24;100786.58;1673308;85;21947;-72
2023/08/14 12:45:35;;;;;;;6.55;2.20;;;;;;;31.21;33.77;100788.90;1675137;85;21349;-77
2023/08/14 12:48:41;;;;;;;7.37;2.55;;;;;;;31.21;33.77;100788.90;1673510;85;21837;-77
2023/08/14 12:51:46;;;;;;;4.45;2.65;;;;;;;31.39;34.47;100779.37;1682177;84;21325;-77
2023/08/14 12:54:51;;;;;;;6.25;2.58;;;;;;;31.02;34.83;100771.91;1678763;84;21293;-73
2023/08/14 12:57:59;;;;;;;5.33;2.70;;;;;;;31.09;34.18;100764.47;1684201;84;21917;-73
2023/08/14 13:01:05;;;;;;;6.00;2.85;;;;;;;30.72;34.35;100768.03;1704617;84;21240;-77
2023/08/14 13:04:11;;;;;;;8.75;2.37;;;;;;;30.68;34.16;100772.02;1678758;83;21357;-77
2023/08/14 13:07:17;;;;;;;5.40;3.15;;;;;;;30.69;34.54;100765.22;1678341;85;21957;-78
2023/08/14 13:10:36;;;;;;;8.38;3.10;;;;;;;31.03;33.16;100761.45;1700173;84;21291;-72
2023/08/14 13:13:41;;;;;;;4.20;2.80;;;;;;;30.79;34.76;100744.53;1692604;84;21264;-72
2023/08/14 13:16:48;;;;;;;6.80;2.90;;;;;;;31.01;35.28;100769.40;1702003;84;21888;-77
2023/08/14 13:19:54;;;;;;;5.83;2.40;;;;;;;31.07;34.06;100774.41;1678775;84;21344;-72
2023/08/14 13:22:59;;;;;;;5.53;2.47;;;;;;;31.34;33.68;100768.98;1679546;85;21293;-77
2023/08/14 13:26:06;;;;;;;8.45;3.02;;;;;;;31.19;33.76;100771.39;1679886;85;21329;-77
2023/08/14 13:29:14;;;;;;;7.37;2.67;;;;;;;31.19;33.98;100765.73;1679376;85;21361;-72
2023/08/14 13:32:19;;;;;;;6.95;2.67;;;;;;;31.20;34.15;100764.62;1679463;84;21329;-77
2023/08/14 13:35:24;;;;;;;6.17;3.20;;;;;;;31.37;33.82;100764.12;1679907;84;21335;-77
2023/08/14 13:38:30;;;;;;;5.33;2.75;;;;;;;31.27;34.20;100760.86;1680389;85;21301;-73
2023/08/14 13:41:35;;;;;;;7.28;2.95;;;;;;;31.13;34.66;100766.96;1680542;85;21341;-72
2023/08/14 13:44:41;;;;;;;5.22;2.50;;;;;;;31.34;34.18;100761.08;1680702;85;21313;-73
2023/08/14 13:47:47;;;;;;;7.47;3.60;;;;;;;31.22;33.90;100765.14;1680855;84;21234;-77
2023/08/14 13:50:55;;;;;;;5.30;2.95;;;;;;;31.24;33.72;100760.05;1680164;85;21320;-73
2023/08/14 13:54:03;;;;;;;6.78;3.08;;;;;;;31.19;33.70;100753.03;1675569;85;21286;-78
2023/08/14 13:57:08;;;;;;;15.53;2.80;;;;;;;31.19;34.29;100758.67;1674416;85;21388;-73
2023/08/14 14:00:16;;;;;;;7.08;3.02;;;;;;;31.08;34.88;100748.67;1675611;85;21301;-78
2023/08/14 14:03:24;;;;;;;5.35;2.98;;;;;;;31.27;35.08;100741.09;1674560;84;21349;-78
2023/08/14 14:06:29;;;;;;;8.73;3.37;;;;;;;31.25;34.80;100739.12;1674880;85;21344;-77
2023/08/14 14:09:33;;;;;;;12.28;2.92;;;;;;;31.03;35.15;100738.86;1675609;85;21369;-77
2023/08/14 14:12:39;;;;;;;21.55;3.65;;;;;;;31.10;34.93;100733.69;1675553;85;21353;-73
2023/08/14 14:15:46;;;;;;;13.32;2.50;;;;;;;31.37;34.37;100736.44;1675323;85;21297;-78
2023/08/14 14:18:45;;;;;;;10.58;3.02;;;;;;;31.30;33.86;100727.77;1675738;85;21286;-74
2023/08/14 14:21:38;;;;;;;12.63;2.77;;;;;;;31.30;33.86;100727.77;1675743;85;21337;-77
2023/08/14 14:24:25;;;;;;;7.15;2.80;;;;;;;31.13;35.42;100733.06;1675803;85;21293;-77
2023/08/14 14:27:18;;;;;;;9.60;3.08;;;;;;;31.08;35.22;100726.07;1675574;85;21376;-73